Time;durP1;ratioP1;P1;durP2;ratioP2;P2;SDS_P1;SDS_P2;PMS_P1;PMS_P2;Temp;Humidity;BMP_temperature;BMP_pressure;BME280_temperature;BME280_humidity;BME280_pressure;Samples;Min_cycle;Max_cycle;Signal;HPM_P1;HPM_P2
2022/05/21 00:00:52;;;;;;;3.70;1.80;;;19.40;61.10;;;;;;4981432;28;20201;-74
2022/05/21 00:03:21;;;;;;;6.07;1.53;;;19.40;61.00;;;;;;4983851;28;20193;-74
2022/05/21 00:05:49;;;;;;;6.03;1.70;;;19.40;60.90;;;;;;4981939;28;20213;-75
2022/05/21 00:08:17;;;;;;;3.43;1.50;;;19.40;60.90;;;;;;4982696;28;20197;-74
2022/05/21 00:10:46;;;;;;;2.53;1.40;;;19.40;60.80;;;;;;4982482;28;20189;-75
2022/05/21 00:13:14;;;;;;;3.43;1.43;;;19.40;61.00;;;;;;4984301;28;20759;-74
2022/05/21 00:15:45;;;;;;;3.00;1.80;;;19.40;61.30;;;;;;4983245;28;20197;-74
2022/05/21 00:18:13;;;;;;;3.27;1.60;;;19.30;61.50;;;;;;4981731;28;20301;-75
2022/05/21 00:20:50;;;;;;;9.93;1.80;;;19.30;61.90;;;;;;4982930;28;20201;-74
2022/05/21 00:23:24;;;;;;;3.83;1.90;;;19.30;62.20;;;;;;4983918;28;20204;-75
2022/05/21 00:25:57;;;;;;;4.23;1.60;;;19.20;62.30;;;;;;4979738;28;20211;-76
2022/05/21 00:28:26;;;;;;;3.90;1.70;;;19.20;62.00;;;;;;4977272;28;20204;-75
2022/05/21 00:30:57;;;;;;;7.10;1.67;;;19.10;61.90;;;;;;4980804;28;20193;-75
2022/05/21 00:33:26;;;;;;;3.73;1.97;;;19.20;62.10;;;;;;4976830;28;20225;-76
2022/05/21 00:35:55;;;;;;;4.90;2.20;;;19.10;62.00;;;;;;4982989;28;20197;-75
2022/05/21 00:38:24;;;;;;;2.97;1.83;;;19.10;62.20;;;;;;4983719;28;20208;-75
2022/05/21 00:40:54;;;;;;;3.37;1.93;;;19.10;62.50;;;;;;4985336;28;20201;-74
2022/05/21 00:43:38;;;;;;;6.33;1.80;;;19.00;62.80;;;;;;4981356;28;20209;-74
2022/05/21 00:46:10;;;;;;;9.60;2.07;;;19.00;63.00;;;;;;4980908;28;20205;-74
2022/05/21 00:48:40;;;;;;;7.00;1.93;;;19.00;62.90;;;;;;4984450;28;20674;-75
2022/05/21 00:51:12;;;;;;;3.83;1.70;;;18.90;62.90;;;;;;4983950;28;20197;-74
2022/05/21 00:53:41;;;;;;;3.17;1.77;;;18.90;62.90;;;;;;4994097;28;20201;-74
2022/05/21 00:56:11;;;;;;;4.10;2.00;;;18.90;63.00;;;;;;4984454;28;20200;-74
2022/05/21 01:01:33;;;;;;;5.63;2.10;;;18.90;63.00;;;;;;4983784;28;20212;-75
2022/05/21 01:04:02;;;;;;;6.13;2.30;;;18.90;63.20;;;;;;4978009;28;20807;-75
2022/05/21 01:06:30;;;;;;;5.77;2.07;;;18.80;63.30;;;;;;4982985;28;20229;-74
2022/05/21 01:08:59;;;;;;;4.47;2.47;;;18.80;63.40;;;;;;4978460;28;20208;-75
2022/05/21 01:11:27;;;;;;;5.87;2.67;;;18.80;63.70;;;;;;4983513;28;20726;-74
2022/05/21 01:13:56;;;;;;;4.13;2.07;;;18.70;63.80;;;;;;4985562;28;20203;-75
2022/05/21 01:16:24;;;;;;;6.57;1.93;;;18.70;64.00;;;;;;4989754;28;20205;-75
2022/05/21 01:18:56;;;;;;;5.90;2.23;;;18.70;64.30;;;;;;4976660;28;20204;-75
2022/05/21 01:21:24;;;;;;;5.07;2.00;;;18.60;64.40;;;;;;4981489;28;20205;-75
2022/05/21 01:23:54;;;;;;;3.90;2.07;;;18.60;64.40;;;;;;4982855;28;20211;-74
2022/05/21 01:26:23;;;;;;;7.87;2.50;;;18.60;64.40;;;;;;4986330;28;20209;-75
2022/05/21 01:28:52;;;;;;;6.00;2.40;;;18.50;64.40;;;;;;4983025;28;20208;-76
2022/05/21 01:31:20;;;;;;;4.50;2.10;;;18.50;64.50;;;;;;4984448;28;20205;-74
2022/05/21 01:33:49;;;;;;;7.23;2.50;;;18.50;64.40;;;;;;4976999;28;20201;-74
2022/05/21 01:36:18;;;;;;;4.70;2.30;;;18.50;64.40;;;;;;4981188;28;20193;-75
2022/05/21 01:38:47;;;;;;;6.27;2.20;;;18.50;64.70;;;;;;4996108;28;20208;-74
2022/05/21 01:41:16;;;;;;;7.37;2.77;;;18.50;64.70;;;;;;4979668;28;20197;-75
2022/05/21 01:46:31;;;;;;;6.03;2.10;;;18.40;64.90;;;;;;4990790;28;20235;-75
2022/05/21 01:48:59;;;;;;;8.47;2.47;;;18.40;64.80;;;;;;4982877;28;20268;-75
2022/05/21 01:51:28;;;;;;;7.83;2.70;;;18.40;64.70;;;;;;4981022;28;20201;-74
2022/05/21 01:53:56;;;;;;;7.10;2.53;;;18.40;64.70;;;;;;4973049;28;20212;-75
2022/05/21 01:56:26;;;;;;;6.70;2.63;;;18.40;64.60;;;;;;4982620;28;20698;-74
2022/05/21 01:58:55;;;;;;;6.13;2.50;;;18.30;64.60;;;;;;4983732;28;20207;-75
2022/05/21 02:01:25;;;;;;;5.63;2.13;;;18.30;64.60;;;;;;4978175;28;20623;-74
2022/05/21 02:03:53;;;;;;;3.80;2.23;;;18.30;65.70;;;;;;4983619;28;20227;-74
2022/05/21 02:06:22;;;;;;;5.70;2.00;;;18.30;64.80;;;;;;4985831;28;20220;-74
2022/05/21 02:08:50;;;;;;;5.57;2.37;;;18.30;64.80;;;;;;4984241;28;20204;-74
2022/05/21 02:11:18;;;;;;;6.20;2.13;;;18.20;64.90;;;;;;4986070;28;20197;-74
2022/05/21 02:13:48;;;;;;;8.03;2.40;;;18.30;65.00;;;;;;4982130;28;20202;-75
2022/05/21 02:16:16;;;;;;;6.40;2.33;;;18.20;64.90;;;;;;4984223;28;20201;-74
2022/05/21 02:18:45;;;;;;;5.40;2.33;;;18.20;65.00;;;;;;4986813;28;20201;-74
2022/05/21 02:21:13;;;;;;;4.70;2.20;;;18.20;65.30;;;;;;4984720;28;20208;-74
2022/05/21 02:23:41;;;;;;;4.00;2.30;;;18.20;65.50;;;;;;4980688;28;20726;-74
2022/05/21 02:26:09;;;;;;;4.47;2.57;;;18.10;65.50;;;;;;4987157;28;20217;-74
2022/05/21 02:28:38;;;;;;;9.57;2.50;;;18.10;65.60;;;;;;4983473;28;20205;-75
2022/05/21 02:31:07;;;;;;;4.87;2.77;;;18.10;65.80;;;;;;4985139;28;20197;-74
2022/05/21 02:33:36;;;;;;;7.83;2.40;;;18.10;65.80;;;;;;4983393;28;20205;-75
2022/05/21 02:36:05;;;;;;;6.17;2.50;;;18.10;65.90;;;;;;4983888;28;20186;-74
2022/05/21 02:41:19;;;;;;;6.40;2.50;;;18.00;66.00;;;;;;4982525;28;20281;-74
2022/05/21 02:43:47;;;;;;;6.40;2.73;;;18.00;65.90;;;;;;4985324;28;20606;-74
2022/05/21 02:46:17;;;;;;;5.13;2.57;;;17.90;65.90;;;;;;4985993;28;20213;-75
2022/05/21 02:48:46;;;;;;;6.33;2.63;;;17.90;66.20;;;;;;4989226;28;20579;-74
2022/05/21 02:51:14;;;;;;;8.27;2.87;;;17.90;66.50;;;;;;4984042;28;20714;-74
2022/05/21 02:53:42;;;;;;;5.07;2.43;;;17.80;66.50;;;;;;4988831;28;20201;-74
2022/05/21 02:56:14;;;;;;;8.60;2.57;;;17.80;66.60;;;;;;4990448;28;20896;-75
2022/05/21 02:58:42;;;;;;;4.77;2.57;;;17.80;66.70;;;;;;4985430;28;20295;-75
2022/05/21 03:01:10;;;;;;;8.43;2.30;;;17.70;67.00;;;;;;4994608;28;20196;-75
2022/05/21 03:03:40;;;;;;;5.70;2.53;;;17.70;67.20;;;;;;4988703;28;20247;-75
2022/05/21 03:06:08;;;;;;;7.27;3.10;;;17.70;67.30;;;;;;4985878;28;20232;-74
2022/05/21 03:11:23;;;;;;;9.90;3.30;;;17.60;67.60;;;;;;4987230;28;20219;-74
2022/05/21 03:13:51;;;;;;;11.37;3.30;;;17.60;67.90;;;;;;4991349;28;20212;-75
2022/05/21 03:16:20;;;;;;;6.10;2.73;;;17.60;68.10;;;;;;4993162;28;20197;-75
2022/05/21 03:18:49;;;;;;;8.03;2.70;;;17.60;68.30;;;;;;4987501;28;20223;-75
2022/05/21 03:21:18;;;;;;;7.67;3.00;;;17.50;68.50;;;;;;4986148;28;20193;-75
2022/05/21 03:23:47;;;;;;;5.27;2.60;;;17.50;68.80;;;;;;4990280;28;20228;-74
2022/05/21 03:26:15;;;;;;;6.13;2.67;;;17.40;68.70;;;;;;4986801;28;20228;-75
2022/05/21 03:28:44;;;;;;;4.93;2.40;;;17.40;68.70;;;;;;4984890;28;20204;-74
2022/05/21 03:31:12;;;;;;;9.73;2.87;;;17.40;68.90;;;;;;4997032;28;20210;-74
2022/05/21 03:33:41;;;;;;;8.53;2.87;;;17.40;69.00;;;;;;4985097;28;20275;-75
2022/05/21 03:36:11;;;;;;;7.83;3.23;;;17.40;69.20;;;;;;4991853;28;20193;-74
2022/05/21 03:38:39;;;;;;;7.90;3.07;;;17.40;69.20;;;;;;4994377;28;20196;-75
2022/05/21 03:41:08;;;;;;;14.00;2.97;;;17.40;69.40;;;;;;4985597;28;20223;-75
2022/05/21 03:43:36;;;;;;;8.00;3.07;;;17.30;69.40;;;;;;4986032;28;20197;-74
2022/05/21 03:46:05;;;;;;;5.67;2.80;;;17.40;69.50;;;;;;4980842;28;20662;-75
2022/05/21 03:48:33;;;;;;;10.03;3.13;;;17.40;69.70;;;;;;4980115;28;20281;-75
2022/05/21 03:51:01;;;;;;;10.80;3.37;;;17.40;69.70;;;;;;4982619;28;20201;-74
2022/05/21 03:53:31;;;;;;;8.43;3.67;;;17.40;69.80;;;;;;4983882;28;20193;-75
2022/05/21 03:56:00;;;;;;;9.17;3.20;;;17.40;70.00;;;;;;4984201;28;20205;-74
2022/05/21 03:58:28;;;;;;;9.40;3.10;;;17.40;69.80;;;;;;4986745;28;20201;-75
2022/05/21 04:00:57;;;;;;;5.60;2.67;;;17.40;69.70;;;;;;4984288;28;20527;-74
2022/05/21 04:03:25;;;;;;;7.67;3.37;;;17.50;69.50;;;;;;4985513;28;20200;-75
2022/05/21 04:05:55;;;;;;;7.27;2.83;;;17.50;69.40;;;;;;4981361;28;20236;-75
2022/05/21 04:08:24;;;;;;;8.33;3.20;;;17.50;69.40;;;;;;4984437;28;20243;-75
2022/05/21 04:10:54;;;;;;;10.30;3.57;;;17.50;69.20;;;;;;4981118;28;20201;-74
2022/05/21 04:13:22;;;;;;;10.43;3.63;;;17.60;69.20;;;;;;4978597;28;20208;-74
2022/05/21 04:15:51;;;;;;;11.87;4.40;;;17.60;69.20;;;;;;4982620;28;20201;-74
2022/05/21 04:18:20;;;;;;;12.50;3.83;;;17.60;69.20;;;;;;4985463;28;20190;-75
2022/05/21 04:20:48;;;;;;;11.43;3.73;;;17.70;69.30;;;;;;4980449;28;20460;-74
2022/05/21 04:23:17;;;;;;;6.60;3.20;;;17.70;69.20;;;;;;4982494;28;20201;-75
2022/05/21 04:25:46;;;;;;;6.83;2.93;;;17.80;69.40;;;;;;4981821;28;20208;-74
2022/05/21 04:28:18;;;;;;;8.37;2.60;;;17.80;69.20;;;;;;4979851;28;20216;-74
2022/05/21 04:30:47;;;;;;;6.50;2.97;;;17.80;69.50;;;;;;4984018;28;20275;-74
2022/05/21 04:33:15;;;;;;;10.03;2.60;;;17.80;69.20;;;;;;4983940;28;20208;-74
2022/05/21 04:38:29;;;;;;;7.70;2.50;;;17.90;69.40;;;;;;4982399;28;20196;-75
2022/05/21 04:40:57;;;;;;;6.77;2.83;;;17.90;69.20;;;;;;4984248;28;20208;-75
2022/05/21 04:43:27;;;;;;;6.77;3.00;;;17.90;68.90;;;;;;4982763;28;20201;-75
2022/05/21 04:46:01;;;;;;;8.43;3.60;;;18.00;68.80;;;;;;4982125;28;20204;-75
2022/05/21 04:48:30;;;;;;;10.37;3.03;;;18.00;68.90;;;;;;4983785;28;20237;-75
2022/05/21 04:51:00;;;;;;;6.30;3.20;;;18.00;69.40;;;;;;4983339;28;20197;-74
2022/05/21 04:53:29;;;;;;;8.40;3.23;;;18.10;69.60;;;;;;4982469;28;20201;-74
2022/05/21 04:55:57;;;;;;;6.90;2.57;;;18.10;69.80;;;;;;4980243;28;20652;-74
2022/05/21 04:58:27;;;;;;;6.73;2.93;;;18.10;69.90;;;;;;4985100;28;20729;-75
2022/05/21 05:00:56;;;;;;;4.87;2.93;;;18.10;69.90;;;;;;4985652;28;20205;-78
2022/05/21 05:03:25;;;;;;;5.60;2.80;;;18.20;70.30;;;;;;4986186;28;20205;-75
2022/05/21 05:05:53;;;;;;;5.43;2.57;;;18.20;70.30;;;;;;4980126;28;21582;-76
2022/05/21 05:08:22;;;;;;;7.93;3.37;;;18.20;70.90;;;;;;4980469;28;20256;-75
2022/05/21 05:10:51;;;;;;;7.30;3.10;;;18.30;71.10;;;;;;4977966;28;20821;-74
2022/05/21 05:13:20;;;;;;;5.27;3.07;;;18.30;71.10;;;;;;4983638;28;20527;-75
2022/05/21 05:15:49;;;;;;;5.20;3.17;;;18.40;71.50;;;;;;4982289;28;20201;-76
2022/05/21 05:18:21;;;;;;;7.03;3.10;;;18.40;71.50;;;;;;4978637;28;20193;-75
2022/05/21 05:20:50;;;;;;;8.87;2.90;;;18.40;71.60;;;;;;4983705;28;20662;-74
2022/05/21 05:23:19;;;;;;;8.40;3.30;;;18.40;71.60;;;;;;4984071;28;20271;-74
2022/05/21 05:25:47;;;;;;;7.93;2.97;;;18.50;71.90;;;;;;4983591;28;20197;-78
2022/05/21 05:28:23;;;;;;;7.30;3.40;;;18.50;72.20;;;;;;4982333;28;20232;-76
2022/05/21 05:30:53;;;;;;;7.53;3.40;;;18.60;72.20;;;;;;4984148;28;20201;-76
2022/05/21 05:33:23;;;;;;;9.20;3.27;;;18.60;72.40;;;;;;4984951;28;20203;-75
2022/05/21 05:35:52;;;;;;;9.63;2.93;;;18.70;72.40;;;;;;4984324;28;20197;-76
2022/05/21 05:38:26;;;;;;;7.37;3.07;;;18.70;72.50;;;;;;4987262;28;20197;-76
2022/05/21 05:40:55;;;;;;;7.40;3.07;;;18.80;72.20;;;;;;4989106;28;20213;-76
2022/05/21 05:43:25;;;;;;;5.80;2.97;;;18.90;72.20;;;;;;4990378;28;20517;-74
2022/05/21 05:45:58;;;;;;;9.87;3.10;;;19.00;72.00;;;;;;4990032;28;20197;-74
2022/05/21 05:48:28;;;;;;;8.27;3.20;;;19.00;72.20;;;;;;4999273;28;20236;-74
2022/05/21 05:50:57;;;;;;;9.00;2.73;;;19.10;72.10;;;;;;4988141;28;20200;-77
2022/05/21 05:53:26;;;;;;;8.03;2.87;;;19.20;72.00;;;;;;4997854;28;20220;-75
2022/05/21 05:55:55;;;;;;;6.57;2.90;;;19.30;72.00;;;;;;4998105;28;20563;-74
2022/05/21 06:01:11;;;;;;;5.40;2.80;;;19.40;72.00;;;;;;4992628;28;20200;-75
2022/05/21 06:03:39;;;;;;;6.33;3.07;;;19.50;72.30;;;;;;4985469;28;20886;-75
2022/05/21 06:06:07;;;;;;;5.70;3.03;;;19.60;71.70;;;;;;4992530;28;20193;-74
2022/05/21 06:08:36;;;;;;;8.03;2.40;;;19.70;71.50;;;;;;4990009;28;20217;-74
2022/05/21 06:11:04;;;;;;;7.23;2.40;;;19.80;71.40;;;;;;5001145;28;20219;-75
2022/05/21 06:13:33;;;;;;;8.67;2.50;;;19.80;70.90;;;;;;4983537;28;20206;-75
2022/05/21 06:16:01;;;;;;;3.43;2.20;;;19.90;70.80;;;;;;4994559;28;20202;-75
2022/05/21 06:18:31;;;;;;;7.17;2.33;;;20.00;70.80;;;;;;4992451;28;20555;-75
2022/05/21 06:21:00;;;;;;;9.17;2.93;;;20.10;70.60;;;;;;4993261;28;20205;-75
2022/05/21 06:23:29;;;;;;;5.60;2.40;;;20.20;69.90;;;;;;4990583;28;20760;-76
2022/05/21 06:25:59;;;;;;;10.40;2.73;;;20.30;69.80;;;;;;4991002;28;20211;-74
2022/05/21 06:28:28;;;;;;;4.77;2.40;;;20.40;69.60;;;;;;4990205;28;20217;-75
2022/05/21 06:30:57;;;;;;;8.40;2.37;;;20.50;69.80;;;;;;4989781;28;20722;-75
2022/05/21 06:33:27;;;;;;;5.97;2.27;;;20.60;69.70;;;;;;4994719;28;20196;-80
2022/05/21 06:36:06;;;;;;;5.70;2.60;;;20.60;68.90;;;;;;4994668;28;20208;-76
2022/05/21 06:38:38;;;;;;;7.70;2.57;;;20.70;69.20;;;;;;4989768;28;20289;-76
2022/05/21 06:41:06;;;;;;;4.20;2.27;;;20.80;69.50;;;;;;4990795;28;20233;-75
2022/05/21 06:43:35;;;;;;;6.27;2.13;;;20.80;69.60;;;;;;4993469;28;20208;-75
2022/05/21 06:46:04;;;;;;;4.17;2.27;;;20.90;69.50;;;;;;4988556;28;20189;-75
2022/05/21 06:48:33;;;;;;;6.13;2.13;;;21.00;69.20;;;;;;4985689;28;20224;-74
2022/05/21 06:51:05;;;;;;;4.20;2.22;;;21.10;69.00;;;;;;4987286;28;20204;-76
2022/05/21 06:53:35;;;;;;;6.82;2.25;;;21.20;68.70;;;;;;4987625;28;20208;-75
2022/05/21 06:56:07;;;;;;;6.03;2.65;;;21.30;68.50;;;;;;4983983;28;20283;-76
2022/05/21 06:58:35;;;;;;;4.13;2.00;;;21.40;68.20;;;;;;4985741;28;20209;-77
2022/05/21 07:01:05;;;;;;;4.70;2.22;;;21.50;66.60;;;;;;4983756;28;20209;-75
2022/05/21 07:03:34;;;;;;;7.57;2.13;;;21.60;66.60;;;;;;4989186;28;20591;-77
2022/05/21 07:08:51;;;;;;;4.95;2.20;;;21.80;65.50;;;;;;4983877;28;20694;-76
2022/05/21 07:11:19;;;;;;;7.68;1.98;;;21.90;63.90;;;;;;4987278;28;20198;-74
2022/05/21 07:13:47;;;;;;;8.30;2.33;;;22.00;64.10;;;;;;4983149;28;20202;-74
2022/05/21 07:16:16;;;;;;;5.65;2.05;;;22.00;64.10;;;;;;4983830;28;20200;-75
2022/05/21 07:18:44;;;;;;;4.65;2.17;;;22.10;64.60;;;;;;4990921;28;20204;-75
2022/05/21 07:21:17;;;;;;;5.10;1.90;;;22.20;64.40;;;;;;4984698;28;20204;-75
2022/05/21 07:23:46;;;;;;;4.88;2.05;;;22.30;64.60;;;;;;4983060;28;20212;-74
2022/05/21 07:26:15;;;;;;;14.85;2.25;;;22.40;64.70;;;;;;4995649;28;20204;-74
2022/05/21 07:28:43;;;;;;;7.40;2.55;;;22.40;64.40;;;;;;5006338;28;20255;-74
2022/05/21 07:31:12;;;;;;;6.57;2.47;;;22.50;64.20;;;;;;5004747;28;20207;-75
2022/05/21 07:33:40;;;;;;;7.25;2.15;;;22.60;64.80;;;;;;5000474;28;20204;-74
2022/05/21 07:36:09;;;;;;;4.75;1.88;;;22.60;64.50;;;;;;5006806;28;20283;-75
2022/05/21 07:38:38;;;;;;;3.42;1.92;;;22.70;64.10;;;;;;4993192;28;20205;-76
2022/05/21 07:41:08;;;;;;;5.28;1.92;;;22.70;63.50;;;;;;4998698;28;20251;-74
2022/05/21 07:44:20;;;;;;;5.28;2.83;;;22.80;63.80;;;;;;4985842;28;20205;-74
2022/05/21 07:46:52;;;;;;;4.43;1.45;;;22.90;63.80;;;;;;4984939;28;20228;-75
2022/05/21 07:49:20;;;;;;;4.40;1.90;;;23.00;63.90;;;;;;4972524;28;20224;-75
2022/05/21 07:51:49;;;;;;;7.70;1.63;;;23.10;63.80;;;;;;4986357;28;20208;-74
2022/05/21 07:54:21;;;;;;;3.65;1.77;;;23.10;63.80;;;;;;4986433;28;20193;-74
2022/05/21 07:56:52;;;;;;;5.57;1.80;;;23.20;63.80;;;;;;4985886;28;20301;-74
2022/05/21 07:59:20;;;;;;;6.45;2.10;;;23.30;63.20;;;;;;4986966;28;20201;-73
2022/05/21 08:01:49;;;;;;;3.67;1.70;;;23.30;61.30;;;;;;4986375;28;20828;-76
2022/05/21 08:04:20;;;;;;;8.02;2.17;;;23.40;61.80;;;;;;4986422;28;20547;-75
2022/05/21 08:06:48;;;;;;;4.35;1.80;;;23.50;61.80;;;;;;4985923;28;20232;-75
2022/05/21 08:09:22;;;;;;;3.25;1.67;;;23.60;61.80;;;;;;4986330;28;20205;-74
2022/05/21 08:11:51;;;;;;;5.05;1.52;;;23.60;62.00;;;;;;4985894;28;20197;-75
2022/05/21 08:14:19;;;;;;;3.83;1.77;;;23.70;62.10;;;;;;4984761;28;20208;-74
2022/05/21 08:16:49;;;;;;;5.82;1.73;;;23.80;61.80;;;;;;4985437;28;20264;-75
2022/05/21 08:19:18;;;;;;;9.55;1.63;;;23.80;60.50;;;;;;4986492;28;20599;-79
2022/05/21 08:21:49;;;;;;;8.38;1.60;;;24.00;60.20;;;;;;4981154;28;20205;-75
2022/05/21 08:27:10;;;;;;;3.33;1.70;;;24.10;60.50;;;;;;4983421;28;20197;-76
2022/05/21 08:29:38;;;;;;;3.20;1.35;;;24.20;59.70;;;;;;4984744;28;20217;-77
2022/05/21 08:32:09;;;;;;;4.20;1.50;;;24.30;59.00;;;;;;4983745;28;20300;-74
2022/05/21 08:34:38;;;;;;;4.53;1.85;;;24.30;58.70;;;;;;4982509;28;20218;-76
2022/05/21 08:37:06;;;;;;;5.68;1.38;;;24.50;58.40;;;;;;4980643;28;20205;-76
2022/05/21 08:39:36;;;;;;;4.00;1.55;;;24.60;58.30;;;;;;4983665;28;20201;-75
2022/05/21 08:42:13;;;;;;;7.93;1.65;;;24.60;57.70;;;;;;4984756;28;20730;-76
2022/05/21 08:44:46;;;;;;;5.75;1.55;;;24.80;57.70;;;;;;4984702;28;20208;-75
2022/05/21 08:47:21;;;;;;;3.17;1.52;;;24.80;57.80;;;;;;4989461;28;20240;-75
2022/05/21 08:49:56;;;;;;;6.68;1.38;;;24.80;58.30;;;;;;4985909;28;20212;-74
2022/05/21 08:52:29;;;;;;;7.35;1.40;;;25.00;58.50;;;;;;4981448;28;20215;-77
2022/05/21 08:55:00;;;;;;;3.75;1.42;;;25.00;57.50;;;;;;4983826;28;20199;-81
2022/05/21 08:57:37;;;;;;;4.45;1.42;;;25.10;56.50;;;;;;4985745;28;20560;-78
2022/05/21 09:00:10;;;;;;;4.20;1.50;;;25.10;56.10;;;;;;4983375;28;20652;-78
2022/05/21 09:02:41;;;;;;;3.60;1.40;;;25.20;55.20;;;;;;4985276;28;20223;-77
2022/05/21 09:05:12;;;;;;;2.60;1.15;;;25.30;55.60;;;;;;4979635;28;20206;-74
2022/05/21 09:07:50;;;;;;;3.40;1.30;;;25.40;55.50;;;;;;4981063;28;21579;-76
2022/05/21 09:10:46;;;;;;;5.15;1.13;;;25.50;54.20;;;;;;4982460;28;21057;-73
2022/05/21 09:13:20;;;;;;;3.08;1.00;;;25.60;53.40;;;;;;4983240;28;20202;-75
2022/05/21 09:18:36;;;;;;;3.15;0.90;;;25.70;53.10;;;;;;4978788;28;20204;-75
2022/05/21 09:21:14;;;;;;;2.88;0.93;;;25.80;53.70;;;;;;4983196;28;20197;-75
2022/05/21 09:23:51;;;;;;;4.63;1.70;;;25.90;53.20;;;;;;4984775;28;20456;-75
2022/05/21 09:26:22;;;;;;;5.68;1.17;;;26.00;53.30;;;;;;4983725;28;20211;-75
2022/05/21 09:28:52;;;;;;;2.55;1.30;;;26.00;52.50;;;;;;4983190;28;20193;-77
2022/05/21 09:31:30;;;;;;;4.50;1.23;;;26.10;51.50;;;;;;4982571;28;20205;-76
2022/05/21 09:34:14;;;;;;;4.47;0.98;;;26.20;51.70;;;;;;4980118;28;20197;-76
2022/05/21 09:36:42;;;;;;;5.10;1.10;;;26.30;51.50;;;;;;4980917;28;20197;-76
2022/05/21 09:39:30;;;;;;;3.28;1.13;;;26.40;52.00;;;;;;4985079;28;20190;-77
2022/05/21 09:42:10;;;;;;;2.55;1.02;;;26.40;51.10;;;;;;4982697;28;20558;-75
2022/05/21 09:47:32;;;;;;;3.75;1.20;;;26.60;50.90;;;;;;4974558;28;20229;-75
2022/05/21 09:50:05;;;;;;;3.17;1.15;;;26.70;51.20;;;;;;4978298;28;20221;-74
2022/05/21 09:52:34;;;;;;;3.50;1.05;;;26.80;49.70;;;;;;4978489;28;20193;-76
2022/05/21 09:55:21;;;;;;;5.50;1.25;;;26.80;49.40;;;;;;4983924;28;20284;-78
2022/05/21 09:58:07;;;;;;;5.13;1.38;;;27.00;49.70;;;;;;4981038;28;20559;-75
2022/05/21 10:00:39;;;;;;;2.28;1.20;;;27.00;50.30;;;;;;4981280;28;20185;-77
2022/05/21 10:03:10;;;;;;;5.03;1.50;;;27.10;48.60;;;;;;4981663;28;20206;-75
2022/05/21 10:05:44;;;;;;;1.63;0.90;;;27.30;49.00;;;;;;4984542;28;20673;-75
2022/05/21 10:11:23;;;;;;;3.35;1.30;;;27.40;48.40;;;;;;4982984;28;20791;-76
2022/05/21 10:13:56;;;;;;;2.55;1.05;;;27.40;48.60;;;;;;4982852;28;20203;-75
2022/05/21 10:16:33;;;;;;;3.30;1.30;;;27.50;46.50;;;;;;4981287;28;20202;-76
2022/05/21 10:19:10;;;;;;;4.13;1.08;;;27.50;46.10;;;;;;4983743;28;20205;-74
2022/05/21 10:21:53;;;;;;;2.72;1.15;;;27.60;46.70;;;;;;4983084;28;20189;-77
2022/05/21 10:24:27;;;;;;;3.42;1.00;;;27.70;47.00;;;;;;4985252;28;20193;-75
2022/05/21 10:27:12;;;;;;;3.35;1.23;;;27.70;47.10;;;;;;4983767;28;20232;-74
2022/05/21 10:29:57;;;;;;;3.10;1.02;;;27.80;47.60;;;;;;4984551;28;20201;-76
2022/05/21 10:32:43;;;;;;;4.25;1.15;;;27.90;46.50;;;;;;4985024;28;20259;-75
2022/05/21 10:35:25;;;;;;;3.05;1.17;;;27.90;46.90;;;;;;4988466;28;20297;-75
2022/05/21 10:38:02;;;;;;;2.83;1.02;;;28.00;46.90;;;;;;4985992;28;20197;-76
2022/05/21 10:40:36;;;;;;;2.42;1.00;;;28.10;44.60;;;;;;4988447;28;20196;-75
2022/05/21 10:43:17;;;;;;;4.93;1.38;;;28.10;43.80;;;;;;4985493;28;20192;-76
2022/05/21 10:46:02;;;;;;;2.95;1.02;;;28.10;43.20;;;;;;4983910;28;20292;-75
2022/05/21 10:48:47;;;;;;;2.03;1.00;;;28.20;43.90;;;;;;5000932;28;20192;-77
2022/05/21 10:51:21;;;;;;;2.80;1.02;;;28.30;44.90;;;;;;5000245;28;20396;-77
2022/05/21 10:54:10;;;;;;;2.97;1.05;;;28.40;44.50;;;;;;5004953;28;20292;-75
2022/05/21 10:57:02;;;;;;;1.13;0.85;;;28.40;44.00;;;;;;5005628;28;20235;-75
2022/05/21 10:59:49;;;;;;;3.55;0.98;;;28.40;43.70;;;;;;5002414;28;20216;-75
2022/05/21 11:02:44;;;;;;;3.30;1.10;;;28.50;43.80;;;;;;5001417;28;20211;-74
2022/05/21 11:05:40;;;;;;;3.40;1.10;;;28.60;44.70;;;;;;5006647;28;20200;-75
2022/05/21 11:08:13;;;;;;;1.65;0.85;;;28.60;44.60;;;;;;5000335;28;20570;-78
2022/05/21 11:10:48;;;;;;;4.95;1.10;;;28.70;43.50;;;;;;5005796;28;20246;-77
2022/05/21 11:13:21;;;;;;;3.13;1.00;;;28.70;42.20;;;;;;5006406;28;20192;-77
2022/05/21 11:15:53;;;;;;;5.25;1.33;;;28.70;42.20;;;;;;4993404;28;20201;-75
2022/05/21 11:18:36;;;;;;;19.67;9.68;;;28.70;42.30;;;;;;4994881;28;20205;-76
2022/05/21 11:21:16;;;;;;;6.22;3.28;;;28.80;41.50;;;;;;5002182;28;20208;-75
2022/05/21 11:23:55;;;;;;;4.90;1.80;;;28.90;41.50;;;;;;4994964;28;20200;-76
2022/05/21 11:26:32;;;;;;;1.45;0.95;;;29.00;41.20;;;;;;4953315;28;20192;-78
2022/05/21 11:29:11;;;;;;;7.05;3.97;;;29.00;39.00;;;;;;5001883;28;20196;-75
2022/05/21 11:37:29;;;;;;;4.53;1.90;;;29.00;40.20;;;;;;5004519;28;20193;-78
2022/05/21 11:40:00;;;;;;;2.60;1.38;;;29.10;41.50;;;;;;5005435;28;20208;-79
2022/05/21 11:42:32;;;;;;;15.13;9.73;;;29.20;42.10;;;;;;5003335;28;20196;-74
2022/05/21 11:45:20;;;;;;;2.08;1.20;;;29.20;40.70;;;;;;5002237;28;20855;-75
2022/05/21 11:47:56;;;;;;;2.22;1.33;;;29.20;41.30;;;;;;4981985;28;20229;-77
2022/05/21 11:50:30;;;;;;;8.68;1.30;;;29.30;41.30;;;;;;4983337;28;20221;-75
2022/05/21 11:53:25;;;;;;;10.00;4.80;;;29.30;41.50;;;;;;4984133;28;20201;-76
2022/05/21 11:56:10;;;;;;;6.22;3.03;;;29.40;41.10;;;;;;4956072;28;20739;-76
2022/05/21 11:59:18;;;;;;;9.90;2.33;;;29.50;40.90;;;;;;4974606;28;20198;-76
2022/05/21 12:01:53;;;;;;;2.03;1.25;;;29.50;40.50;;;;;;4984072;28;20189;-75
2022/05/21 12:04:41;;;;;;;9.10;1.73;;;29.60;41.00;;;;;;4980618;28;20820;-78
2022/05/21 12:07:14;;;;;;;7.32;3.88;;;29.70;41.50;;;;;;4977525;28;20205;-76
2022/05/21 12:10:04;;;;;;;6.50;2.40;;;29.70;40.80;;;;;;4982035;28;20196;-77
2022/05/21 12:12:32;;;;;;;3.53;1.65;;;29.80;40.40;;;;;;4984555;28;20212;-75
2022/05/21 12:15:16;;;;;;;4.90;2.20;;;29.80;41.20;;;;;;4984938;28;21084;-75
2022/05/21 12:17:59;;;;;;;2.15;1.17;;;29.90;41.20;;;;;;4976630;28;20847;-76
2022/05/21 12:20:44;;;;;;;3.22;1.00;;;29.90;40.20;;;;;;4982748;28;20215;-74
2022/05/21 12:23:14;;;;;;;52.80;27.65;;;29.90;39.80;;;;;;4982280;28;20193;-76
2022/05/21 12:25:59;;;;;;;4.28;1.63;;;29.90;40.90;;;;;;4933724;28;20201;-75
2022/05/21 12:28:42;;;;;;;8.60;3.22;;;30.00;40.20;;;;;;4983876;28;20881;-75
2022/05/21 12:31:21;;;;;;;13.63;8.02;;;30.10;39.40;;;;;;4978111;28;20227;-80
2022/05/21 12:34:03;;;;;;;4.38;2.22;;;30.00;39.30;;;;;;4976211;28;20280;-78
2022/05/21 12:36:57;;;;;;;2.65;1.38;;;30.10;39.40;;;;;;4968251;28;20457;-79
2022/05/21 12:39:32;;;;;;;2.53;1.25;;;30.20;39.30;;;;;;4974037;28;20588;-76
2022/05/21 12:42:09;;;;;;;5.38;1.15;;;30.20;39.90;;;;;;4970573;28;20193;-75
2022/05/21 12:44:43;;;;;;;6.60;1.00;;;30.20;39.70;;;;;;4976852;28;20219;-75
2022/05/21 12:47:13;;;;;;;3.38;1.20;;;30.30;39.50;;;;;;4982849;28;20619;-77
2022/05/21 12:49:49;;;;;;;2.80;1.20;;;30.30;37.80;;;;;;4992192;28;20211;-75
2022/05/21 12:52:23;;;;;;;4.35;1.40;;;30.30;37.80;;;;;;4983690;28;20208;-75
2022/05/21 12:55:16;;;;;;;8.30;1.48;;;30.30;38.80;;;;;;4988737;28;20197;-79
2022/05/21 12:57:47;;;;;;;2.75;1.10;;;30.30;39.90;;;;;;4983867;28;20220;-75
2022/05/21 13:00:19;;;;;;;4.38;0.88;;;30.40;40.00;;;;;;4982472;28;20229;-75
2022/05/21 13:02:50;;;;;;;3.72;1.15;;;30.30;38.70;;;;;;4983952;28;20193;-75
2022/05/21 13:05:22;;;;;;;1.27;0.80;;;30.40;39.30;;;;;;4984617;28;20193;-76
2022/05/21 13:07:53;;;;;;;3.50;0.95;;;30.30;38.90;;;;;;4982205;28;20193;-78
2022/05/21 13:10:26;;;;;;;9.40;1.60;;;30.30;38.80;;;;;;4986255;28;20204;-75
2022/05/21 13:13:02;;;;;;;3.25;1.85;;;30.40;39.10;;;;;;4985681;28;20209;-78
2022/05/21 13:15:34;;;;;;;4.85;1.73;;;30.50;39.50;;;;;;4986371;28;20585;-79
2022/05/21 13:18:12;;;;;;;3.13;1.15;;;30.80;39.50;;;;;;4984064;28;20185;-75
2022/05/21 13:20:49;;;;;;;7.63;2.33;;;31.10;38.60;;;;;;4981756;28;20196;-77
2022/05/21 13:23:36;;;;;;;3.13;1.45;;;31.40;38.40;;;;;;4984771;28;20209;-77
2022/05/21 13:26:05;;;;;;;3.90;1.40;;;31.60;38.30;;;;;;4983504;28;20496;-76
2022/05/21 13:28:35;;;;;;;7.60;3.45;;;31.70;38.00;;;;;;4984236;28;20232;-78
2022/05/21 13:31:16;;;;;;;8.10;3.70;;;31.80;38.20;;;;;;4983499;28;20267;-75
2022/05/21 13:33:49;;;;;;;5.85;2.80;;;32.00;38.50;;;;;;4982540;28;20251;-76
2022/05/21 13:36:21;;;;;;;1.88;1.20;;;32.20;38.60;;;;;;4983087;28;20193;-76
2022/05/21 13:38:53;;;;;;;3.67;1.38;;;32.40;38.80;;;;;;4983446;28;20210;-75
2022/05/21 13:41:29;;;;;;;2.72;1.40;;;32.50;38.70;;;;;;4986293;28;20706;-78
2022/05/21 13:44:01;;;;;;;2.13;1.00;;;32.40;38.50;;;;;;4984785;28;20733;-78
2022/05/21 13:46:32;;;;;;;1.80;0.95;;;32.30;39.00;;;;;;4978714;28;20721;-75
2022/05/21 13:49:06;;;;;;;2.88;1.00;;;32.10;38.80;;;;;;4974851;28;20200;-76